createdAt,value
2016-08-02T00:00:28.955Z,0
2016-08-02T00:01:28.557Z,0
2016-08-02T00:02:29.427Z,0
2016-08-02T00:03:28.170Z,0
2016-08-02T00:04:29.341Z,0
2016-08-02T00:05:28.857Z,0
2016-08-02T00:06:29.948Z,0
2016-08-02T00:07:29.014Z,0
2016-08-02T00:08:28.866Z,0
2016-08-02T00:09:29.341Z,0
2016-08-02T00:10:29.336Z,0
2016-08-02T00:11:28.413Z,0
2016-08-02T00:12:28.895Z,0
2016-08-02T00:13:28.378Z,0
2016-08-02T00:14:28.353Z,0
2016-08-02T00:15:30.444Z,0
2016-08-02T00:16:28.352Z,0
2016-08-02T00:17:27.516Z,0
2016-08-02T00:18:30.082Z,0
2016-08-02T00:19:28.967Z,0
2016-08-02T00:20:28.927Z,0
2016-08-02T00:21:28.983Z,0
2016-08-02T00:22:29.000Z,0
2016-08-02T00:23:30.016Z,0
2016-08-02T00:24:29.027Z,0
2016-08-02T00:25:27.423Z,0
2016-08-02T00:26:29.859Z,0
2016-08-02T00:27:28.278Z,0
2016-08-02T00:28:28.976Z,0
2016-08-02T00:29:28.310Z,0
2016-08-02T00:30:30.093Z,0
2016-08-02T00:31:29.036Z,0
2016-08-02T00:32:29.055Z,0
2016-08-02T00:33:28.541Z,0
2016-08-02T00:34:29.760Z,0
2016-08-02T00:35:29.743Z,0
2016-08-02T00:36:28.384Z,0
2016-08-02T00:37:29.871Z,0
2016-08-02T00:38:29.845Z,0
2016-08-02T00:39:29.765Z,0
2016-08-02T00:40:29.893Z,0
2016-08-02T00:41:29.827Z,0
2016-08-02T00:42:29.626Z,0
2016-08-02T00:43:29.067Z,0
2016-08-02T00:44:29.849Z,0
2016-08-02T00:45:29.811Z,0
2016-08-02T00:46:29.149Z,0
2016-08-02T00:47:30.366Z,0
2016-08-02T00:48:28.476Z,0
2016-08-02T00:49:29.806Z,0
2016-08-02T00:50:29.198Z,0
2016-08-02T00:51:29.904Z,0
2016-08-02T00:52:30.045Z,0
2016-08-02T00:53:29.277Z,0
2016-08-02T00:54:55.590Z,0
2016-08-02T00:55:28.454Z,0
2016-08-02T00:56:29.928Z,0
2016-08-02T00:57:30.884Z,0
2016-08-02T00:58:29.817Z,0
2016-08-02T00:59:31.043Z,0
2016-08-02T01:00:29.217Z,0
2016-08-02T01:01:29.930Z,0
2016-08-02T01:02:28.475Z,0
2016-08-02T01:03:29.853Z,0
2016-08-02T01:04:29.266Z,0
2016-08-02T01:05:29.892Z,0
2016-08-02T01:06:29.365Z,0
2016-08-02T01:07:30.000Z,0
2016-08-02T01:08:28.617Z,0
2016-08-02T01:09:30.122Z,0
2016-08-02T01:10:30.035Z,0
2016-08-02T01:11:29.351Z,0
2016-08-02T01:12:30.261Z,0
2016-08-02T01:13:29.974Z,0
2016-08-02T01:14:30.144Z,0
2016-08-02T01:15:30.134Z,0
2016-08-02T01:16:30.080Z,0
2016-08-02T01:17:30.147Z,0
2016-08-02T01:18:28.564Z,0
2016-08-02T01:19:27.915Z,0
2016-08-02T01:20:28.658Z,0
2016-08-02T01:21:29.400Z,0
2016-08-02T01:22:29.502Z,0
2016-08-02T01:23:28.535Z,0
2016-08-02T01:25:28.780Z,0
2016-08-02T01:26:29.405Z,0
2016-08-02T01:27:30.132Z,0
2016-08-02T01:28:30.235Z,0
2016-08-02T01:29:30.402Z,0
2016-08-02T01:30:29.367Z,0
2016-08-02T01:31:29.410Z,0
2016-08-02T01:32:30.283Z,0
2016-08-02T01:33:29.430Z,0
2016-08-02T01:34:29.393Z,0
2016-08-02T01:35:29.437Z,0
2016-08-02T01:36:29.414Z,56
2016-08-02T01:37:30.520Z,0
2016-08-02T01:38:30.405Z,0
2016-08-02T01:39:28.489Z,0
2016-08-02T01:40:30.191Z,0
2016-08-02T01:41:28.820Z,0
2016-08-02T01:42:29.063Z,0
2016-08-02T01:43:29.636Z,0
2016-08-02T01:44:29.560Z,0
2016-08-02T01:45:30.345Z,0
2016-08-02T01:46:30.152Z,0
2016-08-02T01:47:28.691Z,0
2016-08-02T01:48:30.323Z,0
2016-08-02T01:49:29.507Z,0
2016-08-02T01:50:30.538Z,0
2016-08-02T01:51:30.300Z,0
2016-08-02T01:52:28.733Z,0
2016-08-02T01:53:29.587Z,0
2016-08-02T01:54:44.056Z,0
2016-08-02T01:55:30.482Z,0
2016-08-02T01:56:29.805Z,0
2016-08-02T01:57:28.854Z,0
2016-08-02T01:58:30.402Z,0
2016-08-02T01:59:30.425Z,0
2016-08-02T02:00:29.696Z,0
2016-08-02T02:01:29.619Z,0
2016-08-02T02:02:29.530Z,0
2016-08-02T02:03:30.353Z,0
2016-08-02T02:04:28.897Z,0
2016-08-02T02:05:30.469Z,0
2016-08-02T02:06:28.278Z,0
2016-08-02T02:07:28.966Z,0
2016-08-02T02:08:30.751Z,0
2016-08-02T02:09:29.610Z,0
2016-08-02T02:10:29.675Z,0
2016-08-02T02:11:29.641Z,0
2016-08-02T02:12:30.438Z,0
2016-08-02T02:13:29.050Z,0
2016-08-02T02:14:30.506Z,0
2016-08-02T02:15:28.845Z,0
2016-08-02T02:16:29.648Z,0
2016-08-02T02:17:29.708Z,0
2016-08-02T02:18:29.675Z,0
2016-08-02T02:19:30.458Z,0
2016-08-02T02:20:28.963Z,0
2016-08-02T02:21:30.491Z,0
2016-08-02T02:22:29.779Z,0
2016-08-02T02:23:30.535Z,0
2016-08-02T02:24:30.398Z,0
2016-08-02T02:25:30.499Z,0
2016-08-02T02:26:29.085Z,0
2016-08-02T02:27:29.237Z,0
2016-08-02T02:28:28.988Z,0
2016-08-02T02:29:29.647Z,0
2016-08-02T02:30:29.740Z,0
2016-08-02T02:31:29.010Z,0
2016-08-02T02:32:30.212Z,0
2016-08-02T02:33:28.432Z,0
2016-08-02T02:34:29.952Z,0
2016-08-02T02:35:29.728Z,0
2016-08-02T02:36:29.829Z,0
2016-08-02T02:37:31.107Z,0
2016-08-02T02:38:29.164Z,0
2016-08-02T02:39:29.222Z,0
2016-08-02T02:40:30.022Z,0
2016-08-02T02:41:30.561Z,0
2016-08-02T02:42:30.732Z,0
2016-08-02T02:43:29.180Z,0
2016-08-02T02:44:29.151Z,0
2016-08-02T02:45:30.018Z,0
2016-08-02T02:46:30.021Z,0
2016-08-02T02:47:30.606Z,0
2016-08-02T02:48:30.600Z,0
2016-08-02T02:49:30.672Z,0
2016-08-02T02:50:29.213Z,0
2016-08-02T02:51:29.343Z,0
2016-08-02T02:52:29.892Z,0
2016-08-02T02:53:29.400Z,0
2016-08-02T02:54:28.530Z,0
2016-08-02T02:55:29.885Z,0
2016-08-02T02:56:31.773Z,0
2016-08-02T02:57:29.990Z,0
2016-08-02T02:58:30.063Z,0
2016-08-02T02:59:29.281Z,0
2016-08-02T03:00:29.165Z,0
2016-08-02T03:01:30.812Z,0
2016-08-02T03:02:29.932Z,0
2016-08-02T03:03:30.774Z,0
2016-08-02T03:04:30.019Z,0
2016-08-02T03:05:29.898Z,0
2016-08-02T03:06:29.306Z,0
2016-08-02T03:07:30.916Z,0
2016-08-02T03:08:30.962Z,0
2016-08-02T03:09:30.078Z,0
2016-08-02T03:10:30.367Z,0
2016-08-02T03:11:30.187Z,0
2016-08-02T03:12:30.156Z,0
2016-08-02T03:13:31.294Z,0
2016-08-02T03:14:30.892Z,0
2016-08-02T03:15:30.890Z,0
2016-08-02T03:16:30.811Z,0
2016-08-02T03:17:30.155Z,0
2016-08-02T03:18:30.791Z,0
2016-08-02T03:19:30.259Z,0
2016-08-02T03:20:30.168Z,0
2016-08-02T03:21:29.470Z,0
2016-08-02T03:22:29.409Z,0
2016-08-02T03:23:29.492Z,0
2016-08-02T03:24:31.389Z,0
2016-08-02T03:25:30.865Z,0
2016-08-02T03:26:30.268Z,0
2016-08-02T03:27:30.364Z,0
2016-08-02T03:28:30.378Z,0
2016-08-02T03:29:30.227Z,0
2016-08-02T03:30:30.774Z,0
2016-08-02T03:31:30.909Z,0
2016-08-02T03:32:30.144Z,0
2016-08-02T03:33:30.142Z,0
2016-08-02T03:34:29.563Z,0
2016-08-02T03:35:30.930Z,0
2016-08-02T03:36:29.453Z,0
2016-08-02T03:37:31.137Z,0
2016-08-02T03:38:30.809Z,0
2016-08-02T03:39:30.406Z,0
2016-08-02T03:40:30.482Z,0
2016-08-02T03:41:30.117Z,0
2016-08-02T03:42:30.015Z,0
2016-08-02T03:43:29.477Z,0
2016-08-02T03:44:30.361Z,0
2016-08-02T03:45:30.661Z,0
2016-08-02T03:46:30.149Z,0
2016-08-02T03:47:30.389Z,0
2016-08-02T03:48:30.299Z,0
2016-08-02T03:49:30.992Z,0
2016-08-02T03:50:30.340Z,0
2016-08-02T03:51:30.215Z,4
2016-08-02T03:52:29.568Z,4
2016-08-02T03:53:29.548Z,4
2016-08-02T03:54:40.759Z,4
2016-08-02T03:55:30.415Z,4
2016-08-02T03:56:31.142Z,4
2016-08-02T03:57:30.536Z,0
2016-08-02T03:58:30.288Z,4
2016-08-02T03:59:30.242Z,4
2016-08-02T04:00:30.999Z,4
2016-08-02T04:01:30.436Z,4
2016-08-02T04:02:31.226Z,4
2016-08-02T04:03:30.493Z,8
2016-08-02T04:04:31.196Z,8
2016-08-02T04:05:30.572Z,4
2016-08-02T04:06:29.614Z,8
2016-08-02T04:07:30.359Z,8
2016-08-02T04:08:30.480Z,12
2016-08-02T04:09:30.341Z,8
2016-08-02T04:10:30.529Z,12
2016-08-02T04:11:30.455Z,12
2016-08-02T04:12:30.554Z,12
2016-08-02T04:13:29.782Z,16
2016-08-02T04:14:30.575Z,16
2016-08-02T04:15:29.824Z,16
2016-08-02T04:16:30.625Z,20
2016-08-02T04:17:30.521Z,24
2016-08-02T04:18:29.702Z,24
2016-08-02T04:19:31.093Z,28
2016-08-02T04:20:31.399Z,28
2016-08-02T04:21:29.731Z,36
2016-08-02T04:22:31.384Z,40
2016-08-02T04:23:31.225Z,44
2016-08-02T04:24:30.481Z,52
2016-08-02T04:25:31.504Z,56
2016-08-02T04:26:31.168Z,60
2016-08-02T04:27:30.587Z,64
2016-08-02T04:28:31.231Z,72
2016-08-02T04:29:30.522Z,72
2016-08-02T04:30:30.618Z,76
2016-08-02T04:31:30.702Z,76
2016-08-02T04:32:30.768Z,76
2016-08-02T04:33:32.205Z,80
2016-08-02T04:34:31.272Z,76
2016-08-02T04:35:31.298Z,76
2016-08-02T04:36:31.306Z,68
2016-08-02T04:37:31.365Z,68
2016-08-02T04:38:30.003Z,64
2016-08-02T04:39:29.444Z,60
2016-08-02T04:40:30.587Z,56
2016-08-02T04:41:31.459Z,56
2016-08-02T04:42:31.369Z,56
2016-08-02T04:43:31.220Z,56
2016-08-02T04:44:31.618Z,56
2016-08-02T04:45:31.477Z,56
2016-08-02T04:46:31.384Z,64
2016-08-02T04:47:30.700Z,68
2016-08-02T04:48:30.732Z,80
2016-08-02T04:49:30.727Z,88
2016-08-02T04:50:30.690Z,88
2016-08-02T04:51:30.553Z,88
2016-08-02T04:52:31.433Z,88
2016-08-02T04:53:30.667Z,84
2016-08-02T04:54:29.625Z,80
2016-08-02T04:55:30.165Z,72
2016-08-02T04:56:30.629Z,72
2016-08-02T04:57:31.728Z,68
2016-08-02T04:58:31.764Z,68
2016-08-02T04:59:30.645Z,68
2016-08-02T05:00:30.969Z,72
2016-08-02T05:01:29.923Z,76
2016-08-02T05:02:31.344Z,80
2016-08-02T05:03:31.671Z,76
2016-08-02T05:04:30.042Z,76
2016-08-02T05:05:30.545Z,80
2016-08-02T05:06:30.857Z,76
2016-08-02T05:07:30.754Z,80
2016-08-02T05:08:31.557Z,80
2016-08-02T05:09:29.296Z,84
2016-08-02T05:10:29.958Z,84
2016-08-02T05:11:29.311Z,92
2016-08-02T05:12:31.676Z,100
2016-08-02T05:13:31.713Z,104
2016-08-02T05:14:30.989Z,108
2016-08-02T05:15:29.998Z,108
2016-08-02T05:16:30.062Z,108
2016-08-02T05:17:31.559Z,112
2016-08-02T05:18:30.947Z,120
2016-08-02T05:19:30.018Z,136
2016-08-02T05:20:31.580Z,152
2016-08-02T05:21:30.868Z,164
2016-08-02T05:22:31.549Z,172
2016-08-02T05:23:30.908Z,172
2016-08-02T05:24:40.692Z,180
2016-08-02T05:25:30.918Z,184
2016-08-02T05:26:31.562Z,192
2016-08-02T05:27:30.117Z,212
2016-08-02T05:28:30.208Z,200
2016-08-02T05:29:31.687Z,180
2016-08-02T05:30:30.820Z,176
2016-08-02T05:31:30.309Z,172
2016-08-02T05:32:30.960Z,172
2016-08-02T05:33:29.681Z,172
2016-08-02T05:34:30.943Z,172
2016-08-02T05:35:31.983Z,164
2016-08-02T05:36:30.284Z,164
2016-08-02T05:37:31.691Z,172
2016-08-02T05:38:30.305Z,152
2016-08-02T05:39:29.546Z,152
2016-08-02T05:40:30.855Z,152
2016-08-02T05:41:31.648Z,156
2016-08-02T05:42:31.786Z,160
2016-08-02T05:43:30.174Z,176
2016-08-02T05:44:30.965Z,192
2016-08-02T05:45:31.712Z,212
2016-08-02T05:46:30.916Z,236
2016-08-02T05:47:31.818Z,252
2016-08-02T05:48:31.845Z,268
2016-08-02T05:49:30.209Z,296
2016-08-02T05:50:31.051Z,324
2016-08-02T05:51:30.226Z,352
2016-08-02T05:52:31.052Z,364
2016-08-02T05:53:30.980Z,360
2016-08-02T05:55:31.823Z,288
2016-08-02T05:56:31.693Z,264
2016-08-02T05:57:44.605Z,252
2016-08-02T05:58:31.029Z,256
2016-08-02T05:59:31.063Z,260
2016-08-02T06:00:31.074Z,268
2016-08-02T06:01:31.125Z,284
2016-08-02T06:02:31.783Z,304
2016-08-02T06:03:31.719Z,332
2016-08-02T06:04:32.031Z,368
2016-08-02T06:05:31.024Z,412
2016-08-02T06:06:30.443Z,432
2016-08-02T06:07:30.408Z,440
2016-08-02T06:08:31.249Z,472
2016-08-02T06:10:31.885Z,556
2016-08-02T06:11:31.204Z,624
2016-08-02T06:12:30.731Z,652
2016-08-02T06:13:30.505Z,660
2016-08-02T06:14:31.919Z,640
2016-08-02T06:15:31.393Z,564
2016-08-02T06:16:30.401Z,512
2016-08-02T06:17:31.121Z,516
2016-08-02T06:18:31.179Z,492
2016-08-02T06:19:31.222Z,516
2016-08-02T06:20:30.643Z,596
2016-08-02T06:21:30.554Z,720
2016-08-02T06:22:31.984Z,872
2016-08-02T06:23:31.987Z,1008
2016-08-02T06:24:45.383Z,920
2016-08-02T06:25:30.454Z,760
2016-08-02T06:26:30.473Z,552
2016-08-02T06:27:31.422Z,500
2016-08-02T06:28:32.009Z,532
2016-08-02T06:29:31.290Z,552
2016-08-02T06:30:30.492Z,524
2016-08-02T06:31:30.538Z,480
2016-08-02T06:32:31.974Z,432
2016-08-02T06:33:31.195Z,408
2016-08-02T06:34:30.647Z,388
2016-08-02T06:35:31.369Z,400
2016-08-02T06:36:30.725Z,432
2016-08-02T06:37:30.519Z,484
2016-08-02T06:38:31.332Z,540
2016-08-02T06:40:31.345Z,596
2016-08-02T06:41:30.544Z,584
2016-08-02T06:42:31.284Z,532
2016-08-02T06:43:30.015Z,476
2016-08-02T06:44:31.368Z,428
2016-08-02T06:45:32.270Z,404
2016-08-02T06:46:30.579Z,400
2016-08-02T06:47:32.147Z,400
2016-08-02T06:48:32.098Z,400
2016-08-02T06:49:31.543Z,408
2016-08-02T06:50:32.115Z,428
2016-08-02T06:51:30.833Z,468
2016-08-02T06:52:30.774Z,500
2016-08-02T06:53:32.107Z,532
2016-08-02T06:55:31.374Z,536
2016-08-02T06:56:30.701Z,536
2016-08-02T06:57:30.700Z,552
2016-08-02T06:58:32.163Z,580
2016-08-02T06:59:31.043Z,632
2016-08-02T07:00:32.222Z,692
2016-08-02T07:01:30.921Z,756
2016-08-02T07:02:32.253Z,824
2016-08-02T07:03:32.228Z,836
2016-08-02T07:04:30.693Z,800
2016-08-02T07:05:31.504Z,728
2016-08-02T07:06:31.535Z,668
2016-08-02T07:07:32.244Z,612
2016-08-02T07:08:31.571Z,560
2016-08-02T07:09:30.075Z,536
2016-08-02T07:10:31.440Z,544
2016-08-02T07:11:31.728Z,568
2016-08-02T07:12:32.283Z,580
2016-08-02T07:13:31.489Z,580
2016-08-02T07:14:31.523Z,580
2016-08-02T07:15:32.312Z,564
2016-08-02T07:16:33.441Z,560
2016-08-02T07:17:31.606Z,540
2016-08-02T07:18:32.297Z,520
2016-08-02T07:19:32.314Z,508
2016-08-02T07:20:32.335Z,520
2016-08-02T07:21:32.322Z,484
2016-08-02T07:22:32.434Z,412
2016-08-02T07:23:32.357Z,332
2016-08-02T07:25:31.534Z,272
2016-08-02T07:26:31.706Z,228
2016-08-02T07:27:31.054Z,200
2016-08-02T07:28:31.023Z,196
2016-08-02T07:29:31.566Z,216
2016-08-02T07:30:30.156Z,204
2016-08-02T07:31:31.743Z,180
2016-08-02T07:32:31.581Z,164
2016-08-02T07:33:30.225Z,176
2016-08-02T07:34:31.698Z,204
2016-08-02T07:35:31.810Z,252
2016-08-02T07:36:30.369Z,276
2016-08-02T07:37:30.938Z,292
2016-08-02T07:38:31.619Z,332
2016-08-02T07:39:31.248Z,360
2016-08-02T07:40:31.769Z,316
2016-08-02T07:41:31.713Z,304
2016-08-02T07:42:31.659Z,248
2016-08-02T07:43:31.666Z,236
2016-08-02T07:44:30.951Z,248
2016-08-02T07:45:32.577Z,280
2016-08-02T07:46:31.790Z,336
2016-08-02T07:47:30.263Z,448
2016-08-02T07:48:32.471Z,536
2016-08-02T07:49:31.922Z,604
2016-08-02T07:50:31.752Z,568
2016-08-02T07:51:30.310Z,612
2016-08-02T07:52:32.614Z,608
2016-08-02T07:53:31.031Z,444
2016-08-02T07:54:46.743Z,396
2016-08-02T07:55:31.160Z,384
2016-08-02T07:56:31.820Z,372
2016-08-02T07:57:32.569Z,408
2016-08-02T07:58:31.903Z,432
2016-08-02T07:59:32.091Z,408
2016-08-02T08:00:31.309Z,432
2016-08-02T08:01:31.852Z,508
2016-08-02T08:02:31.910Z,536
2016-08-02T08:03:31.365Z,604
2016-08-02T08:04:31.138Z,652
2016-08-02T08:05:31.252Z,692
2016-08-02T08:06:30.413Z,660
2016-08-02T08:07:32.608Z,628
2016-08-02T08:08:30.575Z,588
2016-08-02T08:09:31.112Z,596
2016-08-02T08:10:32.672Z,508
2016-08-02T08:11:31.214Z,512
2016-08-02T08:12:31.245Z,596
2016-08-02T08:13:31.155Z,700
2016-08-02T08:14:32.638Z,788
2016-08-02T08:15:31.263Z,876
2016-08-02T08:16:32.005Z,928
2016-08-02T08:17:31.993Z,948
2016-08-02T08:18:31.959Z,948
2016-08-02T08:19:31.181Z,924
2016-08-02T08:20:31.336Z,888
2016-08-02T08:21:32.094Z,868
2016-08-02T08:22:31.365Z,888
2016-08-02T08:23:31.252Z,900
2016-08-02T08:25:32.742Z,908
2016-08-02T08:26:32.721Z,884
2016-08-02T08:27:31.229Z,928
2016-08-02T08:28:31.950Z,980
2016-08-02T08:29:31.952Z,1028
2016-08-02T08:30:32.756Z,1132
2016-08-02T08:31:30.567Z,1200
2016-08-02T08:32:31.267Z,1280
2016-08-02T08:33:31.271Z,1284
2016-08-02T08:34:31.990Z,1280
2016-08-02T08:35:31.991Z,1268
2016-08-02T08:36:32.703Z,1256
2016-08-02T08:37:32.719Z,1304
2016-08-02T08:38:32.009Z,1364
2016-08-02T08:39:32.018Z,1460
2016-08-02T08:40:31.316Z,1564
2016-08-02T08:41:32.735Z,1456
2016-08-02T08:42:32.089Z,1492
2016-08-02T08:43:32.801Z,1756
2016-08-02T08:44:32.058Z,1820
2016-08-02T08:45:32.057Z,1740
2016-08-02T08:46:31.356Z,1636
2016-08-02T08:47:32.071Z,1560
2016-08-02T08:48:32.859Z,1428
2016-08-02T08:49:32.083Z,1304
2016-08-02T08:50:30.727Z,1340
2016-08-02T08:51:32.101Z,1364
2016-08-02T08:52:32.109Z,1208
2016-08-02T08:53:32.112Z,1036
2016-08-02T08:54:31.412Z,1080
2016-08-02T08:55:32.834Z,1176
2016-08-02T08:56:32.135Z,1300
2016-08-02T08:57:32.187Z,1352
2016-08-02T08:58:31.442Z,1420
2016-08-02T08:59:32.154Z,1160
2016-08-02T09:00:32.189Z,1104
2016-08-02T09:01:31.454Z,1076
2016-08-02T09:02:31.506Z,1092
2016-08-02T09:03:32.192Z,976
2016-08-02T09:04:32.322Z,940
2016-08-02T09:05:32.423Z,1024
2016-08-02T09:06:33.291Z,1296
2016-08-02T09:07:33.151Z,1336
2016-08-02T09:08:32.407Z,1148
2016-08-02T09:09:32.309Z,1308
2016-08-02T09:10:32.236Z,1384
2016-08-02T09:11:31.529Z,1460
2016-08-02T09:12:31.535Z,1408
2016-08-02T09:13:32.244Z,1356
2016-08-02T09:14:31.546Z,1264
2016-08-02T09:15:32.963Z,1208
2016-08-02T09:16:32.322Z,1152
2016-08-02T09:17:32.319Z,1080
2016-08-02T09:18:32.448Z,1028
2016-08-02T09:19:32.329Z,960
2016-08-02T09:20:32.286Z,916
2016-08-02T09:21:31.641Z,888
2016-08-02T09:22:33.067Z,832
2016-08-02T09:23:31.600Z,824
2016-08-02T09:24:32.321Z,792
2016-08-02T09:25:31.623Z,612
2016-08-02T09:26:30.914Z,524
2016-08-02T09:27:31.623Z,444
2016-08-02T09:28:32.387Z,392
2016-08-02T09:29:33.057Z,356
2016-08-02T09:30:32.354Z,336
2016-08-02T09:31:30.945Z,400
2016-08-02T09:32:32.368Z,504
2016-08-02T09:33:33.080Z,516
2016-08-02T09:34:33.090Z,584
2016-08-02T09:35:32.388Z,656
2016-08-02T09:36:30.972Z,784
2016-08-02T09:37:31.688Z,832
2016-08-02T09:38:30.990Z,876
2016-08-02T09:39:32.050Z,904
2016-08-02T09:40:31.727Z,916
2016-08-02T09:41:32.434Z,1012
2016-08-02T09:42:32.441Z,1236
2016-08-02T09:43:32.882Z,1404
2016-08-02T09:44:31.739Z,1436
2016-08-02T09:45:32.507Z,1552
2016-08-02T09:46:33.191Z,1672
2016-08-02T09:47:33.170Z,1692
2016-08-02T09:48:34.081Z,1532
2016-08-02T09:49:32.576Z,1540
2016-08-02T09:50:32.489Z,1432
2016-08-02T09:51:32.486Z,1432
2016-08-02T09:52:32.494Z,1412
2016-08-02T09:53:33.211Z,1244
2016-08-02T09:54:31.899Z,1112
2016-08-02T09:55:32.089Z,1004
2016-08-02T09:56:31.816Z,1028
2016-08-02T09:57:33.240Z,1096
2016-08-02T09:58:32.543Z,1208
2016-08-02T09:59:33.245Z,1236
2016-08-02T10:00:32.649Z,1180
2016-08-02T10:01:31.899Z,1124
2016-08-02T10:02:31.855Z,1100
2016-08-02T10:03:32.565Z,1072
2016-08-02T10:04:31.861Z,1100
2016-08-02T10:05:32.589Z,1040
2016-08-02T10:06:31.932Z,1084
2016-08-02T10:07:31.889Z,1044
2016-08-02T10:08:33.314Z,1108
2016-08-02T10:09:32.608Z,1076
2016-08-02T10:10:31.182Z,1060
2016-08-02T10:11:31.929Z,1088
2016-08-02T10:12:32.017Z,1188
2016-08-02T10:13:32.636Z,1380
2016-08-02T10:14:33.343Z,1492
2016-08-02T10:15:33.404Z,1544
2016-08-02T10:16:33.417Z,1704
2016-08-02T10:17:32.717Z,1880
2016-08-02T10:18:31.958Z,1864
2016-08-02T10:19:31.258Z,1604
2016-08-02T10:20:32.023Z,1380
2016-08-02T10:21:31.977Z,1160
2016-08-02T10:22:33.394Z,1108
2016-08-02T10:23:32.702Z,1164
2016-08-02T10:24:32.704Z,1256
2016-08-02T10:25:31.345Z,1192
2016-08-02T10:26:31.301Z,1132
2016-08-02T10:27:32.727Z,1108
2016-08-02T10:28:32.026Z,1140
2016-08-02T10:29:32.736Z,1232
2016-08-02T10:30:31.330Z,1304
2016-08-02T10:31:32.748Z,1196
2016-08-02T10:32:33.509Z,1264
2016-08-02T10:33:33.468Z,1280
2016-08-02T10:34:32.780Z,1220
2016-08-02T10:35:32.776Z,1188
2016-08-02T10:36:32.781Z,1296
2016-08-02T10:37:32.082Z,1288
2016-08-02T10:38:32.845Z,1304
2016-08-02T10:39:32.813Z,1304
2016-08-02T10:40:32.128Z,1304
2016-08-02T10:41:32.812Z,1240
2016-08-02T10:42:32.128Z,1236
2016-08-02T10:43:32.829Z,1168
2016-08-02T10:44:32.842Z,1036
2016-08-02T10:45:33.547Z,964
2016-08-02T10:46:31.435Z,916
2016-08-02T10:47:31.450Z,872
2016-08-02T10:48:32.152Z,852
2016-08-02T10:49:33.569Z,852
2016-08-02T10:50:32.163Z,896
2016-08-02T10:51:32.881Z,896
2016-08-02T10:52:32.231Z,848
2016-08-02T10:53:32.894Z,828
2016-08-02T10:54:32.898Z,808
2016-08-02T10:56:32.258Z,820
2016-08-02T10:57:32.209Z,788
2016-08-02T10:58:33.638Z,812
2016-08-02T10:59:32.224Z,852
2016-08-02T11:00:33.747Z,860
2016-08-02T11:01:33.654Z,976
2016-08-02T11:02:33.004Z,1060
2016-08-02T11:03:32.961Z,1280
2016-08-02T11:04:32.310Z,1412
2016-08-02T11:05:32.263Z,1456
2016-08-02T11:06:32.321Z,1364
2016-08-02T11:07:32.327Z,1356
2016-08-02T11:08:33.748Z,1224
2016-08-02T11:09:33.712Z,1244
2016-08-02T11:11:31.611Z,1084
2016-08-02T11:12:33.022Z,1032
2016-08-02T11:13:32.318Z,1032
2016-08-02T11:14:31.622Z,1064
2016-08-02T11:15:33.038Z,1088
2016-08-02T11:16:31.641Z,1180
2016-08-02T11:17:33.104Z,1332
2016-08-02T11:18:33.760Z,1480
2016-08-02T11:19:33.768Z,1468
2016-08-02T11:20:33.075Z,1432
2016-08-02T11:21:32.376Z,1140
2016-08-02T11:22:32.389Z,956
2016-08-02T11:23:33.120Z,992
2016-08-02T11:24:51.595Z,1172
2016-08-02T11:26:31.699Z,1464
2016-08-02T11:27:33.130Z,1480
2016-08-02T11:28:32.426Z,1372
2016-08-02T11:29:32.425Z,1212
2016-08-02T11:30:33.136Z,1220
2016-08-02T11:31:31.730Z,1200
2016-08-02T11:32:33.858Z,1172
2016-08-02T11:33:33.859Z,1100
2016-08-02T11:34:32.453Z,1032
2016-08-02T11:35:32.466Z,984
2016-08-02T11:36:33.887Z,960
2016-08-02T11:37:32.479Z,888
2016-08-02T11:38:33.899Z,852
2016-08-02T11:39:33.368Z,816
2016-08-02T11:41:34.266Z,752
2016-08-02T11:42:33.218Z,848
2016-08-02T11:43:32.517Z,908
2016-08-02T11:44:31.832Z,916
2016-08-02T11:45:31.819Z,1052
2016-08-02T11:46:32.581Z,1000
2016-08-02T11:47:33.957Z,952
2016-08-02T11:48:33.304Z,880
2016-08-02T11:49:33.257Z,800
2016-08-02T11:50:33.974Z,848
2016-08-02T11:51:47.826Z,1012
2016-08-02T11:52:33.988Z,1008
2016-08-02T11:53:34.064Z,972
2016-08-02T11:54:32.644Z,1136
2016-08-02T11:55:33.301Z,1356
2016-08-02T11:56:34.018Z,1400
2016-08-02T11:57:32.608Z,1340
2016-08-02T11:58:33.321Z,1312
2016-08-02T11:59:33.375Z,1376
2016-08-02T12:00:32.631Z,1460
2016-08-02T12:01:33.345Z,1476
2016-08-02T12:02:33.350Z,1420
2016-08-02T12:03:33.362Z,1308
2016-08-02T12:04:33.418Z,1144
2016-08-02T12:05:34.081Z,984
2016-08-02T12:06:32.666Z,1040
2016-08-02T12:07:32.673Z,1068
2016-08-02T12:08:33.439Z,964
2016-08-02T12:09:34.104Z,932
2016-08-02T12:10:32.707Z,904
2016-08-02T12:11:33.407Z,1024
2016-08-02T12:12:33.410Z,1060
2016-08-02T12:13:33.418Z,1104
2016-08-02T12:14:34.129Z,1000
2016-08-02T12:15:33.479Z,888
2016-08-02T12:16:32.739Z,956
2016-08-02T12:17:32.737Z,1000
2016-08-02T12:18:33.451Z,1080
2016-08-02T12:19:33.456Z,968
2016-08-02T12:20:34.174Z,988
2016-08-02T12:21:32.763Z,892
2016-08-02T12:22:33.475Z,932
2016-08-02T12:23:33.484Z,912
2016-08-02T12:25:06.869Z,848
2016-08-02T12:25:32.783Z,844
2016-08-02T12:26:32.096Z,924
2016-08-02T12:27:33.509Z,920
2016-08-02T12:28:33.563Z,960
2016-08-02T12:29:34.232Z,956
2016-08-02T12:30:34.237Z,936
2016-08-02T12:31:34.242Z,832
2016-08-02T12:32:32.899Z,800
2016-08-02T12:33:34.303Z,760
2016-08-02T12:34:33.755Z,680
2016-08-02T12:35:34.151Z,680
2016-08-02T12:36:34.368Z,696
2016-08-02T12:37:32.864Z,792
2016-08-02T12:38:34.286Z,752
2016-08-02T12:39:32.876Z,716
2016-08-02T12:40:32.928Z,712
2016-08-02T12:41:33.591Z,812
2016-08-02T12:42:34.336Z,856
2016-08-02T12:43:33.678Z,772
2016-08-02T12:44:33.670Z,716
2016-08-02T12:45:32.970Z,760
2016-08-02T12:46:33.628Z,952
2016-08-02T12:47:32.933Z,1052
2016-08-02T12:48:33.736Z,1212
2016-08-02T12:49:33.659Z,1152
2016-08-02T12:50:33.651Z,1084
2016-08-02T12:51:33.664Z,1068
2016-08-02T12:52:33.671Z,1024
2016-08-02T12:53:33.672Z,944
2016-08-02T12:54:33.788Z,944
2016-08-02T12:55:34.441Z,900
2016-08-02T12:56:33.696Z,956
2016-08-02T12:57:33.696Z,892
2016-08-02T12:58:33.720Z,768
2016-08-02T12:59:32.303Z,856
2016-08-02T13:00:33.783Z,952
2016-08-02T13:01:34.430Z,972
2016-08-02T13:02:33.935Z,924
2016-08-02T13:03:33.044Z,864
2016-08-02T13:04:33.043Z,804
2016-08-02T13:05:33.041Z,752
2016-08-02T13:06:34.855Z,768
2016-08-02T13:07:33.111Z,832
2016-08-02T13:08:33.767Z,872
2016-08-02T13:09:34.485Z,940
2016-08-02T13:10:33.827Z,948
2016-08-02T13:11:33.786Z,1036
2016-08-02T13:12:33.084Z,1116
2016-08-02T13:13:33.949Z,1088
2016-08-02T13:14:34.514Z,888
2016-08-02T13:15:33.348Z,704
2016-08-02T13:16:33.812Z,736
2016-08-02T13:17:33.821Z,752
2016-08-02T13:18:34.568Z,760
2016-08-02T13:19:33.838Z,748
2016-08-02T13:20:33.838Z,844
2016-08-02T13:21:34.556Z,912
2016-08-02T13:22:33.207Z,984
2016-08-02T13:23:33.911Z,960
2016-08-02T13:24:34.674Z,820
2016-08-02T13:25:33.880Z,788
2016-08-02T13:26:33.169Z,792
2016-08-02T13:27:33.884Z,848
2016-08-02T13:28:33.890Z,932
2016-08-02T13:29:33.903Z,932
2016-08-02T13:30:33.906Z,912
2016-08-02T13:31:33.204Z,812
2016-08-02T13:32:34.625Z,832
2016-08-02T13:33:34.630Z,856
2016-08-02T13:34:34.735Z,972
2016-08-02T13:35:33.934Z,852
2016-08-02T13:36:34.650Z,736
2016-08-02T13:37:33.997Z,740
2016-08-02T13:38:34.660Z,708
2016-08-02T13:39:33.539Z,600
2016-08-02T13:40:34.675Z,712
2016-08-02T13:41:34.947Z,700
2016-08-02T13:42:33.990Z,652
2016-08-02T13:43:33.275Z,588
2016-08-02T13:44:32.581Z,644
2016-08-02T13:45:33.998Z,712
2016-08-02T13:46:34.004Z,692
2016-08-02T13:47:34.069Z,736
2016-08-02T13:48:33.305Z,740
2016-08-02T13:49:33.366Z,888
2016-08-02T13:50:33.320Z,892
2016-08-02T13:51:34.036Z,1080
2016-08-02T13:52:34.046Z,1112
2016-08-02T13:53:33.399Z,1164
2016-08-02T13:54:34.763Z,1180
2016-08-02T13:55:34.058Z,1136
2016-08-02T13:56:33.356Z,1096
2016-08-02T13:57:34.080Z,1040
2016-08-02T13:58:34.795Z,900
2016-08-02T13:59:33.427Z,784
2016-08-02T14:00:34.090Z,700
2016-08-02T14:01:32.680Z,852
2016-08-02T14:02:33.446Z,612
2016-08-02T14:03:33.402Z,548
2016-08-02T14:04:34.118Z,588
2016-08-02T14:05:34.136Z,632
2016-08-02T14:06:32.716Z,792
2016-08-02T14:07:34.135Z,684
2016-08-02T14:08:34.137Z,624
2016-08-02T14:09:33.433Z,696
2016-08-02T14:10:34.149Z,644